sensor_id;sensor_type;location;lat;lon;timestamp;P1;durP1;ratioP1;P2;durP2;ratioP2
1949;SDS011;975;48.760;9.152;2023-08-30T00:00:38;6.15;;;4.10;;
1949;SDS011;975;48.760;9.152;2023-08-30T00:03:26;5.68;;;3.88;;
1949;SDS011;975;48.760;9.152;2023-08-30T00:06:14;7.05;;;3.97;;
1949;SDS011;975;48.760;9.152;2023-08-30T00:09:02;6.90;;;3.95;;
1949;SDS011;975;48.760;9.152;2023-08-30T00:11:50;7.80;;;4.53;;
1949;SDS011;975;48.760;9.152;2023-08-30T00:14:39;4.63;;;3.67;;
1949;SDS011;975;48.760;9.152;2023-08-30T00:17:27;6.28;;;3.95;;
1949;SDS011;975;48.760;9.152;2023-08-30T00:20:14;5.03;;;3.92;;
1949;SDS011;975;48.760;9.152;2023-08-30T00:23:02;6.35;;;3.83;;
1949;SDS011;975;48.760;9.152;2023-08-30T00:25:50;4.80;;;3.67;;
1949;SDS011;975;48.760;9.152;2023-08-30T00:28:38;5.15;;;4.05;;
1949;SDS011;975;48.760;9.152;2023-08-30T00:31:27;5.57;;;4.07;;
1949;SDS011;975;48.760;9.152;2023-08-30T00:34:15;7.60;;;4.65;;
1949;SDS011;975;48.760;9.152;2023-08-30T00:37:02;5.35;;;4.25;;
1949;SDS011;975;48.760;9.152;2023-08-30T00:39:50;6.55;;;4.18;;
1949;SDS011;975;48.760;9.152;2023-08-30T00:42:38;7.38;;;4.75;;
1949;SDS011;975;48.760;9.152;2023-08-30T00:45:26;5.75;;;4.30;;
1949;SDS011;975;48.760;9.152;2023-08-30T00:48:15;7.30;;;5.28;;
1949;SDS011;975;48.760;9.152;2023-08-30T00:51:05;6.65;;;4.50;;
1949;SDS011;975;48.760;9.152;2023-08-30T00:53:53;6.55;;;4.57;;
1949;SDS011;975;48.760;9.152;2023-08-30T00:56:41;8.18;;;4.75;;
1949;SDS011;975;48.760;9.152;2023-08-30T00:59:29;5.53;;;4.30;;
1949;SDS011;975;48.760;9.152;2023-08-30T01:02:18;5.40;;;4.18;;
1949;SDS011;975;48.760;9.152;2023-08-30T01:05:08;10.23;;;5.00;;
1949;SDS011;975;48.760;9.152;2023-08-30T01:07:56;6.80;;;4.60;;
1949;SDS011;975;48.760;9.152;2023-08-30T01:10:46;7.45;;;4.72;;
1949;SDS011;975;48.760;9.152;2023-08-30T01:13:36;7.00;;;4.70;;
1949;SDS011;975;48.760;9.152;2023-08-30T01:16:25;7.05;;;4.90;;
1949;SDS011;975;48.760;9.152;2023-08-30T01:19:17;7.07;;;4.65;;
1949;SDS011;975;48.760;9.152;2023-08-30T01:22:11;8.23;;;4.25;;
1949;SDS011;975;48.760;9.152;2023-08-30T01:25:05;6.88;;;4.00;;
1949;SDS011;975;48.760;9.152;2023-08-30T01:27:57;9.10;;;4.35;;
1949;SDS011;975;48.760;9.152;2023-08-30T01:30:46;7.60;;;4.15;;
1949;SDS011;975;48.760;9.152;2023-08-30T01:33:34;7.03;;;4.22;;
1949;SDS011;975;48.760;9.152;2023-08-30T01:36:23;7.15;;;4.35;;
1949;SDS011;975;48.760;9.152;2023-08-30T01:39:10;8.18;;;4.68;;
1949;SDS011;975;48.760;9.152;2023-08-30T01:42:00;11.50;;;4.30;;
1949;SDS011;975;48.760;9.152;2023-08-30T01:44:51;6.70;;;4.05;;
1949;SDS011;975;48.760;9.152;2023-08-30T01:47:41;8.00;;;4.40;;
1949;SDS011;975;48.760;9.152;2023-08-30T01:50:30;6.03;;;3.67;;
1949;SDS011;975;48.760;9.152;2023-08-30T01:53:18;5.97;;;3.78;;
1949;SDS011;975;48.760;9.152;2023-08-30T01:56:07;5.30;;;3.90;;
1949;SDS011;975;48.760;9.152;2023-08-30T01:58:55;6.78;;;4.30;;
1949;SDS011;975;48.760;9.152;2023-08-30T02:01:44;6.07;;;3.80;;
1949;SDS011;975;48.760;9.152;2023-08-30T02:04:31;5.38;;;3.53;;
1949;SDS011;975;48.760;9.152;2023-08-30T02:07:20;4.70;;;3.67;;
1949;SDS011;975;48.760;9.152;2023-08-30T02:10:10;5.18;;;4.00;;
1949;SDS011;975;48.760;9.152;2023-08-30T02:12:58;6.93;;;4.10;;
1949;SDS011;975;48.760;9.152;2023-08-30T02:15:46;4.95;;;3.85;;
1949;SDS011;975;48.760;9.152;2023-08-30T02:18:36;7.47;;;3.53;;
1949;SDS011;975;48.760;9.152;2023-08-30T02:21:24;5.78;;;3.78;;
1949;SDS011;975;48.760;9.152;2023-08-30T02:24:12;4.85;;;3.60;;
1949;SDS011;975;48.760;9.152;2023-08-30T02:27:00;5.53;;;4.07;;
1949;SDS011;975;48.760;9.152;2023-08-30T02:29:48;6.80;;;4.03;;
1949;SDS011;975;48.760;9.152;2023-08-30T02:32:35;6.45;;;3.63;;
1949;SDS011;975;48.760;9.152;2023-08-30T02:35:25;4.95;;;3.90;;
1949;SDS011;975;48.760;9.152;2023-08-30T02:38:12;4.90;;;3.63;;
1949;SDS011;975;48.760;9.152;2023-08-30T02:41:00;6.47;;;3.95;;
1949;SDS011;975;48.760;9.152;2023-08-30T02:43:48;4.63;;;3.22;;
1949;SDS011;975;48.760;9.152;2023-08-30T02:46:36;4.72;;;3.70;;
1949;SDS011;975;48.760;9.152;2023-08-30T02:49:24;6.40;;;3.72;;
1949;SDS011;975;48.760;9.152;2023-08-30T02:52:13;4.53;;;3.38;;
1949;SDS011;975;48.760;9.152;2023-08-30T02:55:01;6.28;;;4.07;;
1949;SDS011;975;48.760;9.152;2023-08-30T02:57:49;4.40;;;3.15;;
1949;SDS011;975;48.760;9.152;2023-08-30T03:00:36;5.90;;;3.80;;
1949;SDS011;975;48.760;9.152;2023-08-30T03:03:24;4.95;;;3.72;;
1949;SDS011;975;48.760;9.152;2023-08-30T03:06:12;5.38;;;3.95;;
1949;SDS011;975;48.760;9.152;2023-08-30T03:09:02;5.05;;;3.97;;
1949;SDS011;975;48.760;9.152;2023-08-30T03:11:50;5.03;;;3.33;;
1949;SDS011;975;48.760;9.152;2023-08-30T03:14:37;5.28;;;3.63;;
1949;SDS011;975;48.760;9.152;2023-08-30T03:17:25;5.55;;;3.35;;
1949;SDS011;975;48.760;9.152;2023-08-30T03:20:13;7.60;;;3.92;;
1949;SDS011;975;48.760;9.152;2023-08-30T03:23:01;5.90;;;3.47;;
1949;SDS011;975;48.760;9.152;2023-08-30T03:25:50;8.00;;;4.38;;
1949;SDS011;975;48.760;9.152;2023-08-30T03:28:38;10.40;;;4.22;;
1949;SDS011;975;48.760;9.152;2023-08-30T03:31:26;7.80;;;4.13;;
1949;SDS011;975;48.760;9.152;2023-08-30T03:34:13;5.78;;;4.13;;
1949;SDS011;975;48.760;9.152;2023-08-30T03:37:01;5.97;;;4.88;;
1949;SDS011;975;48.760;9.152;2023-08-30T03:39:49;7.22;;;4.05;;
1949;SDS011;975;48.760;9.152;2023-08-30T03:42:38;5.90;;;3.70;;
1949;SDS011;975;48.760;9.152;2023-08-30T03:45:26;5.70;;;3.70;;
1949;SDS011;975;48.760;9.152;2023-08-30T03:48:14;5.72;;;3.42;;
1949;SDS011;975;48.760;9.152;2023-08-30T03:51:01;7.25;;;3.90;;
1949;SDS011;975;48.760;9.152;2023-08-30T03:53:49;5.53;;;4.55;;
1949;SDS011;975;48.760;9.152;2023-08-30T03:56:37;5.15;;;3.78;;
1949;SDS011;975;48.760;9.152;2023-08-30T03:59:26;5.47;;;3.70;;
1949;SDS011;975;48.760;9.152;2023-08-30T04:02:14;5.85;;;3.95;;
1949;SDS011;975;48.760;9.152;2023-08-30T04:05:02;10.50;;;4.05;;
1949;SDS011;975;48.760;9.152;2023-08-30T04:07:54;6.75;;;4.22;;
1949;SDS011;975;48.760;9.152;2023-08-30T04:10:41;6.43;;;3.88;;
1949;SDS011;975;48.760;9.152;2023-08-30T04:13:33;6.95;;;4.47;;
1949;SDS011;975;48.760;9.152;2023-08-30T04:16:22;6.15;;;3.97;;
1949;SDS011;975;48.760;9.152;2023-08-30T04:19:10;5.13;;;3.80;;
1949;SDS011;975;48.760;9.152;2023-08-30T04:21:58;6.53;;;4.05;;
1949;SDS011;975;48.760;9.152;2023-08-30T04:24:45;8.82;;;4.00;;
1949;SDS011;975;48.760;9.152;2023-08-30T04:27:33;6.78;;;4.30;;
1949;SDS011;975;48.760;9.152;2023-08-30T04:30:21;7.63;;;4.25;;
1949;SDS011;975;48.760;9.152;2023-08-30T04:33:10;7.10;;;4.28;;
1949;SDS011;975;48.760;9.152;2023-08-30T04:35:58;8.93;;;4.72;;
1949;SDS011;975;48.760;9.152;2023-08-30T04:38:46;8.65;;;5.05;;
1949;SDS011;975;48.760;9.152;2023-08-30T04:41:34;8.38;;;5.50;;
1949;SDS011;975;48.760;9.152;2023-08-30T04:44:22;12.13;;;5.85;;
1949;SDS011;975;48.760;9.152;2023-08-30T04:47:10;11.05;;;5.78;;
1949;SDS011;975;48.760;9.152;2023-08-30T04:49:59;8.98;;;5.15;;
1949;SDS011;975;48.760;9.152;2023-08-30T04:52:48;9.07;;;5.22;;
1949;SDS011;975;48.760;9.152;2023-08-30T04:55:35;9.32;;;6.13;;
1949;SDS011;975;48.760;9.152;2023-08-30T04:58:23;8.50;;;5.38;;
1949;SDS011;975;48.760;9.152;2023-08-30T05:01:11;8.40;;;5.28;;
1949;SDS011;975;48.760;9.152;2023-08-30T05:04:00;9.40;;;5.50;;
1949;SDS011;975;48.760;9.152;2023-08-30T05:06:49;9.73;;;5.80;;
1949;SDS011;975;48.760;9.152;2023-08-30T05:09:37;8.68;;;5.82;;
1949;SDS011;975;48.760;9.152;2023-08-30T05:12:26;7.28;;;5.10;;
1949;SDS011;975;48.760;9.152;2023-08-30T05:15:13;10.32;;;5.13;;
1949;SDS011;975;48.760;9.152;2023-08-30T05:18:01;9.50;;;5.45;;
1949;SDS011;975;48.760;9.152;2023-08-30T05:20:49;7.35;;;4.88;;
1949;SDS011;975;48.760;9.152;2023-08-30T05:23:38;11.05;;;5.13;;
1949;SDS011;975;48.760;9.152;2023-08-30T05:26:27;8.23;;;4.82;;
1949;SDS011;975;48.760;9.152;2023-08-30T05:29:15;7.07;;;4.97;;
1949;SDS011;975;48.760;9.152;2023-08-30T05:32:03;8.07;;;5.30;;
1949;SDS011;975;48.760;9.152;2023-08-30T05:34:51;8.90;;;5.05;;
1949;SDS011;975;48.760;9.152;2023-08-30T05:37:39;8.00;;;4.80;;
1949;SDS011;975;48.760;9.152;2023-08-30T05:40:28;8.93;;;5.00;;
1949;SDS011;975;48.760;9.152;2023-08-30T05:43:16;7.88;;;4.55;;
1949;SDS011;975;48.760;9.152;2023-08-30T05:46:04;6.93;;;4.72;;
1949;SDS011;975;48.760;9.152;2023-08-30T05:48:57;10.75;;;5.13;;
1949;SDS011;975;48.760;9.152;2023-08-30T05:51:46;8.98;;;4.82;;
1949;SDS011;975;48.760;9.152;2023-08-30T05:54:34;7.63;;;4.75;;
1949;SDS011;975;48.760;9.152;2023-08-30T05:57:23;6.80;;;4.85;;
1949;SDS011;975;48.760;9.152;2023-08-30T06:00:12;9.43;;;5.40;;
1949;SDS011;975;48.760;9.152;2023-08-30T06:03:00;8.15;;;5.07;;
1949;SDS011;975;48.760;9.152;2023-08-30T06:05:48;6.65;;;4.68;;
1949;SDS011;975;48.760;9.152;2023-08-30T06:08:36;7.60;;;4.53;;
1949;SDS011;975;48.760;9.152;2023-08-30T06:11:24;6.28;;;4.15;;
1949;SDS011;975;48.760;9.152;2023-08-30T06:14:13;7.82;;;4.20;;
1949;SDS011;975;48.760;9.152;2023-08-30T06:17:00;6.68;;;4.20;;
1949;SDS011;975;48.760;9.152;2023-08-30T06:19:48;6.35;;;4.20;;
1949;SDS011;975;48.760;9.152;2023-08-30T06:22:36;6.75;;;4.25;;
1949;SDS011;975;48.760;9.152;2023-08-30T06:25:24;7.25;;;4.20;;
1949;SDS011;975;48.760;9.152;2023-08-30T06:28:12;6.78;;;4.45;;
1949;SDS011;975;48.760;9.152;2023-08-30T06:31:01;7.32;;;4.57;;
1949;SDS011;975;48.760;9.152;2023-08-30T06:33:49;6.13;;;4.40;;
1949;SDS011;975;48.760;9.152;2023-08-30T06:36:37;6.43;;;4.22;;
1949;SDS011;975;48.760;9.152;2023-08-30T06:39:25;6.80;;;4.43;;
1949;SDS011;975;48.760;9.152;2023-08-30T06:42:12;8.10;;;4.15;;
1949;SDS011;975;48.760;9.152;2023-08-30T06:45:00;8.88;;;4.43;;
1949;SDS011;975;48.760;9.152;2023-08-30T06:47:50;7.28;;;4.03;;
1949;SDS011;975;48.760;9.152;2023-08-30T06:50:38;6.47;;;4.10;;
1949;SDS011;975;48.760;9.152;2023-08-30T06:53:26;6.53;;;4.28;;
1949;SDS011;975;48.760;9.152;2023-08-30T06:56:14;5.25;;;3.85;;
1949;SDS011;975;48.760;9.152;2023-08-30T06:59:02;6.43;;;4.10;;
1949;SDS011;975;48.760;9.152;2023-08-30T07:01:50;7.63;;;3.80;;
1949;SDS011;975;48.760;9.152;2023-08-30T07:04:39;6.15;;;4.10;;
1949;SDS011;975;48.760;9.152;2023-08-30T07:07:26;5.78;;;3.60;;
1949;SDS011;975;48.760;9.152;2023-08-30T07:10:14;5.68;;;3.47;;
1949;SDS011;975;48.760;9.152;2023-08-30T07:13:02;6.93;;;3.92;;
1949;SDS011;975;48.760;9.152;2023-08-30T07:15:55;6.63;;;3.67;;
1949;SDS011;975;48.760;9.152;2023-08-30T07:18:43;5.25;;;3.60;;
1949;SDS011;975;48.760;9.152;2023-08-30T07:21:32;5.72;;;3.47;;
1949;SDS011;975;48.760;9.152;2023-08-30T07:24:23;5.25;;;3.67;;
1949;SDS011;975;48.760;9.152;2023-08-30T07:27:11;9.20;;;3.78;;
1949;SDS011;975;48.760;9.152;2023-08-30T07:29:59;5.20;;;3.40;;
1949;SDS011;975;48.760;9.152;2023-08-30T07:32:47;7.00;;;4.15;;
1949;SDS011;975;48.760;9.152;2023-08-30T07:35:34;5.93;;;4.03;;
1949;SDS011;975;48.760;9.152;2023-08-30T07:38:24;5.20;;;3.42;;
1949;SDS011;975;48.760;9.152;2023-08-30T07:41:11;5.40;;;3.88;;
1949;SDS011;975;48.760;9.152;2023-08-30T07:43:59;5.60;;;3.80;;
1949;SDS011;975;48.760;9.152;2023-08-30T07:46:47;6.38;;;4.45;;
1949;SDS011;975;48.760;9.152;2023-08-30T07:49:35;5.55;;;3.72;;
1949;SDS011;975;48.760;9.152;2023-08-30T07:52:22;6.45;;;3.80;;
1949;SDS011;975;48.760;9.152;2023-08-30T07:55:12;5.50;;;3.80;;
1949;SDS011;975;48.760;9.152;2023-08-30T07:58:00;5.32;;;3.60;;
1949;SDS011;975;48.760;9.152;2023-08-30T08:00:50;5.53;;;3.60;;
1949;SDS011;975;48.760;9.152;2023-08-30T08:03:38;8.50;;;3.97;;
1949;SDS011;975;48.760;9.152;2023-08-30T08:06:26;5.45;;;3.55;;
1949;SDS011;975;48.760;9.152;2023-08-30T08:09:14;4.47;;;3.35;;
1949;SDS011;975;48.760;9.152;2023-08-30T08:12:04;4.60;;;3.33;;
1949;SDS011;975;48.760;9.152;2023-08-30T08:14:52;5.03;;;3.67;;
1949;SDS011;975;48.760;9.152;2023-08-30T08:17:40;5.57;;;3.83;;
1949;SDS011;975;48.760;9.152;2023-08-30T08:20:28;6.05;;;3.70;;
1949;SDS011;975;48.760;9.152;2023-08-30T08:23:16;4.72;;;2.83;;
1949;SDS011;975;48.760;9.152;2023-08-30T08:26:03;5.68;;;2.97;;
1949;SDS011;975;48.760;9.152;2023-08-30T08:28:55;4.55;;;3.40;;
1949;SDS011;975;48.760;9.152;2023-08-30T08:31:44;8.00;;;3.30;;
1949;SDS011;975;48.760;9.152;2023-08-30T08:34:32;5.10;;;3.47;;
1949;SDS011;975;48.760;9.152;2023-08-30T08:37:20;4.30;;;2.72;;
1949;SDS011;975;48.760;9.152;2023-08-30T08:40:08;5.57;;;2.80;;
1949;SDS011;975;48.760;9.152;2023-08-30T08:42:56;3.30;;;2.72;;
1949;SDS011;975;48.760;9.152;2023-08-30T08:45:45;4.60;;;3.00;;
1949;SDS011;975;48.760;9.152;2023-08-30T08:48:34;5.18;;;2.95;;
1949;SDS011;975;48.760;9.152;2023-08-30T08:51:23;6.05;;;2.85;;
1949;SDS011;975;48.760;9.152;2023-08-30T08:54:12;3.15;;;2.53;;
1949;SDS011;975;48.760;9.152;2023-08-30T08:57:00;5.20;;;3.97;;
1949;SDS011;975;48.760;9.152;2023-08-30T08:59:48;4.13;;;3.08;;
1949;SDS011;975;48.760;9.152;2023-08-30T09:02:37;4.03;;;2.85;;
1949;SDS011;975;48.760;9.152;2023-08-30T09:05:27;6.00;;;3.10;;
1949;SDS011;975;48.760;9.152;2023-08-30T09:08:15;3.33;;;2.63;;
1949;SDS011;975;48.760;9.152;2023-08-30T09:11:02;3.58;;;2.53;;
1949;SDS011;975;48.760;9.152;2023-08-30T09:13:50;3.42;;;2.38;;
1949;SDS011;975;48.760;9.152;2023-08-30T09:16:38;2.92;;;2.40;;
1949;SDS011;975;48.760;9.152;2023-08-30T09:19:27;3.50;;;2.22;;
1949;SDS011;975;48.760;9.152;2023-08-30T09:22:15;2.83;;;2.33;;
1949;SDS011;975;48.760;9.152;2023-08-30T09:25:03;3.55;;;2.55;;
1949;SDS011;975;48.760;9.152;2023-08-30T09:27:51;3.20;;;2.17;;
1949;SDS011;975;48.760;9.152;2023-08-30T09:30:39;3.90;;;2.45;;
1949;SDS011;975;48.760;9.152;2023-08-30T09:33:30;3.67;;;2.10;;
1949;SDS011;975;48.760;9.152;2023-08-30T09:36:20;3.35;;;2.00;;
1949;SDS011;975;48.760;9.152;2023-08-30T09:39:08;2.88;;;2.20;;
1949;SDS011;975;48.760;9.152;2023-08-30T09:41:56;3.35;;;2.05;;
1949;SDS011;975;48.760;9.152;2023-08-30T09:44:44;4.03;;;1.70;;
1949;SDS011;975;48.760;9.152;2023-08-30T09:47:31;2.83;;;2.08;;
1949;SDS011;975;48.760;9.152;2023-08-30T09:50:20;2.13;;;1.65;;
1949;SDS011;975;48.760;9.152;2023-08-30T09:53:10;1.90;;;1.70;;
1949;SDS011;975;48.760;9.152;2023-08-30T09:55:59;2.67;;;1.80;;
1949;SDS011;975;48.760;9.152;2023-08-30T09:58:47;1.48;;;1.38;;
1949;SDS011;975;48.760;9.152;2023-08-30T10:01:36;2.65;;;1.58;;
1949;SDS011;975;48.760;9.152;2023-08-30T10:04:24;2.50;;;1.85;;
1949;SDS011;975;48.760;9.152;2023-08-30T10:07:12;2.75;;;1.50;;
1949;SDS011;975;48.760;9.152;2023-08-30T10:10:01;5.38;;;1.63;;
1949;SDS011;975;48.760;9.152;2023-08-30T10:12:50;1.70;;;1.58;;
1949;SDS011;975;48.760;9.152;2023-08-30T10:15:39;1.42;;;1.23;;
1949;SDS011;975;48.760;9.152;2023-08-30T10:18:28;1.95;;;1.55;;
1949;SDS011;975;48.760;9.152;2023-08-30T10:21:17;2.17;;;1.42;;
1949;SDS011;975;48.760;9.152;2023-08-30T10:24:07;1.63;;;1.27;;
1949;SDS011;975;48.760;9.152;2023-08-30T10:26:57;1.88;;;1.42;;
1949;SDS011;975;48.760;9.152;2023-08-30T10:29:46;2.22;;;1.40;;
1949;SDS011;975;48.760;9.152;2023-08-30T10:32:38;1.70;;;1.33;;
1949;SDS011;975;48.760;9.152;2023-08-30T10:35:26;1.45;;;1.10;;
1949;SDS011;975;48.760;9.152;2023-08-30T10:38:23;1.23;;;1.13;;
1949;SDS011;975;48.760;9.152;2023-08-30T10:41:11;1.98;;;1.33;;
1949;SDS011;975;48.760;9.152;2023-08-30T10:44:01;2.83;;;1.27;;
1949;SDS011;975;48.760;9.152;2023-08-30T10:46:51;2.15;;;1.33;;
1949;SDS011;975;48.760;9.152;2023-08-30T10:49:39;4.82;;;1.55;;
1949;SDS011;975;48.760;9.152;2023-08-30T10:52:29;1.88;;;1.55;;
1949;SDS011;975;48.760;9.152;2023-08-30T10:55:17;3.47;;;1.55;;
1949;SDS011;975;48.760;9.152;2023-08-30T10:58:04;3.10;;;1.50;;
1949;SDS011;975;48.760;9.152;2023-08-30T11:00:54;1.20;;;1.10;;
1949;SDS011;975;48.760;9.152;2023-08-30T11:03:41;1.45;;;1.25;;
1949;SDS011;975;48.760;9.152;2023-08-30T11:06:29;1.65;;;1.55;;
1949;SDS011;975;48.760;9.152;2023-08-30T11:09:18;3.22;;;1.45;;
1949;SDS011;975;48.760;9.152;2023-08-30T11:12:06;2.88;;;1.45;;
1949;SDS011;975;48.760;9.152;2023-08-30T11:14:54;3.15;;;1.70;;
1949;SDS011;975;48.760;9.152;2023-08-30T11:17:43;2.70;;;1.33;;
1949;SDS011;975;48.760;9.152;2023-08-30T11:20:31;1.73;;;1.42;;
1949;SDS011;975;48.760;9.152;2023-08-30T11:23:19;1.77;;;1.23;;
1949;SDS011;975;48.760;9.152;2023-08-30T11:26:07;2.38;;;1.50;;
1949;SDS011;975;48.760;9.152;2023-08-30T11:28:55;1.58;;;1.27;;
1949;SDS011;975;48.760;9.152;2023-08-30T11:31:44;1.58;;;1.15;;
1949;SDS011;975;48.760;9.152;2023-08-30T11:34:34;1.67;;;1.35;;
1949;SDS011;975;48.760;9.152;2023-08-30T11:37:21;1.92;;;1.10;;
1949;SDS011;975;48.760;9.152;2023-08-30T11:40:10;1.73;;;1.30;;
1949;SDS011;975;48.760;9.152;2023-08-30T11:42:58;2.38;;;1.92;;
1949;SDS011;975;48.760;9.152;2023-08-30T11:45:55;2.08;;;1.30;;
1949;SDS011;975;48.760;9.152;2023-08-30T11:48:43;1.85;;;1.67;;
1949;SDS011;975;48.760;9.152;2023-08-30T11:51:32;2.35;;;1.83;;
1949;SDS011;975;48.760;9.152;2023-08-30T11:54:20;2.53;;;1.80;;
1949;SDS011;975;48.760;9.152;2023-08-30T11:57:08;2.13;;;1.70;;
1949;SDS011;975;48.760;9.152;2023-08-30T11:59:56;1.80;;;1.40;;
1949;SDS011;975;48.760;9.152;2023-08-30T12:02:53;2.92;;;1.70;;
1949;SDS011;975;48.760;9.152;2023-08-30T12:05:43;3.35;;;2.17;;
1949;SDS011;975;48.760;9.152;2023-08-30T12:08:32;1.90;;;1.70;;
1949;SDS011;975;48.760;9.152;2023-08-30T12:11:20;2.33;;;1.98;;
1949;SDS011;975;48.760;9.152;2023-08-30T12:14:08;2.78;;;1.95;;
1949;SDS011;975;48.760;9.152;2023-08-30T12:16:59;5.38;;;2.00;;
1949;SDS011;975;48.760;9.152;2023-08-30T12:19:54;3.17;;;2.28;;
1949;SDS011;975;48.760;9.152;2023-08-30T12:22:42;3.35;;;2.10;;
1949;SDS011;975;48.760;9.152;2023-08-30T12:25:31;3.10;;;2.30;;
1949;SDS011;975;48.760;9.152;2023-08-30T12:28:19;3.03;;;2.00;;
1949;SDS011;975;48.760;9.152;2023-08-30T12:31:07;3.30;;;1.65;;
1949;SDS011;975;48.760;9.152;2023-08-30T12:33:56;3.25;;;1.75;;
1949;SDS011;975;48.760;9.152;2023-08-30T12:36:43;2.38;;;2.00;;
1949;SDS011;975;48.760;9.152;2023-08-30T12:39:32;3.03;;;2.10;;
1949;SDS011;975;48.760;9.152;2023-08-30T12:42:21;2.67;;;1.85;;
1949;SDS011;975;48.760;9.152;2023-08-30T12:45:08;3.13;;;2.05;;
1949;SDS011;975;48.760;9.152;2023-08-30T12:47:57;2.40;;;2.03;;
1949;SDS011;975;48.760;9.152;2023-08-30T12:50:45;2.10;;;1.90;;
1949;SDS011;975;48.760;9.152;2023-08-30T12:53:33;3.83;;;1.80;;
1949;SDS011;975;48.760;9.152;2023-08-30T12:56:21;3.42;;;1.90;;
1949;SDS011;975;48.760;9.152;2023-08-30T12:59:10;2.78;;;2.10;;
1949;SDS011;975;48.760;9.152;2023-08-30T13:01:58;4.15;;;2.08;;
1949;SDS011;975;48.760;9.152;2023-08-30T13:04:45;5.53;;;1.90;;
1949;SDS011;975;48.760;9.152;2023-08-30T13:07:33;2.40;;;1.85;;
1949;SDS011;975;48.760;9.152;2023-08-30T13:10:21;6.25;;;1.80;;
1949;SDS011;975;48.760;9.152;2023-08-30T13:13:08;2.88;;;2.08;;
1949;SDS011;975;48.760;9.152;2023-08-30T13:15:58;1.88;;;1.58;;
1949;SDS011;975;48.760;9.152;2023-08-30T13:18:45;2.05;;;1.67;;
1949;SDS011;975;48.760;9.152;2023-08-30T13:21:34;2.08;;;1.75;;
1949;SDS011;975;48.760;9.152;2023-08-30T13:24:21;1.85;;;1.48;;
1949;SDS011;975;48.760;9.152;2023-08-30T13:27:09;2.15;;;1.50;;
1949;SDS011;975;48.760;9.152;2023-08-30T13:29:58;1.58;;;1.38;;
1949;SDS011;975;48.760;9.152;2023-08-30T13:32:47;1.80;;;1.33;;
1949;SDS011;975;48.760;9.152;2023-08-30T13:35:35;1.77;;;1.42;;
1949;SDS011;975;48.760;9.152;2023-08-30T13:38:23;2.28;;;1.55;;
1949;SDS011;975;48.760;9.152;2023-08-30T13:41:11;1.88;;;1.35;;
1949;SDS011;975;48.760;9.152;2023-08-30T13:43:58;1.60;;;1.40;;
1949;SDS011;975;48.760;9.152;2023-08-30T13:46:46;2.72;;;1.80;;
1949;SDS011;975;48.760;9.152;2023-08-30T13:49:36;2.08;;;1.80;;
1949;SDS011;975;48.760;9.152;2023-08-30T13:52:24;1.92;;;1.38;;
1949;SDS011;975;48.760;9.152;2023-08-30T13:55:11;1.70;;;1.33;;
1949;SDS011;975;48.760;9.152;2023-08-30T13:57:59;2.38;;;1.80;;
1949;SDS011;975;48.760;9.152;2023-08-30T14:00:47;1.40;;;1.30;;
1949;SDS011;975;48.760;9.152;2023-08-30T14:03:35;2.65;;;1.23;;
1949;SDS011;975;48.760;9.152;2023-08-30T14:06:24;1.80;;;1.45;;
1949;SDS011;975;48.760;9.152;2023-08-30T14:09:11;2.80;;;1.75;;
1949;SDS011;975;48.760;9.152;2023-08-30T14:11:59;2.38;;;1.98;;
1949;SDS011;975;48.760;9.152;2023-08-30T14:14:49;2.00;;;1.58;;
1949;SDS011;975;48.760;9.152;2023-08-30T14:17:37;1.60;;;1.50;;
1949;SDS011;975;48.760;9.152;2023-08-30T14:20:25;2.17;;;1.55;;
1949;SDS011;975;48.760;9.152;2023-08-30T14:23:14;1.92;;;1.70;;
1949;SDS011;975;48.760;9.152;2023-08-30T14:26:02;3.22;;;1.63;;
1949;SDS011;975;48.760;9.152;2023-08-30T14:28:54;1.80;;;1.55;;
1949;SDS011;975;48.760;9.152;2023-08-30T14:31:42;1.95;;;1.42;;
1949;SDS011;975;48.760;9.152;2023-08-30T14:34:29;1.90;;;1.45;;
1949;SDS011;975;48.760;9.152;2023-08-30T14:37:17;2.30;;;1.65;;
1949;SDS011;975;48.760;9.152;2023-08-30T14:40:07;2.17;;;1.50;;
1949;SDS011;975;48.760;9.152;2023-08-30T14:42:55;2.00;;;1.50;;
1949;SDS011;975;48.760;9.152;2023-08-30T14:45:42;2.35;;;1.77;;
1949;SDS011;975;48.760;9.152;2023-08-30T14:48:30;2.80;;;1.75;;
1949;SDS011;975;48.760;9.152;2023-08-30T14:51:18;3.00;;;1.92;;
1949;SDS011;975;48.760;9.152;2023-08-30T14:54:06;2.38;;;1.80;;
1949;SDS011;975;48.760;9.152;2023-08-30T14:56:55;3.60;;;1.50;;
1949;SDS011;975;48.760;9.152;2023-08-30T14:59:43;2.50;;;1.85;;
1949;SDS011;975;48.760;9.152;2023-08-30T15:02:31;2.15;;;1.88;;
1949;SDS011;975;48.760;9.152;2023-08-30T15:05:18;2.22;;;1.80;;
1949;SDS011;975;48.760;9.152;2023-08-30T15:08:07;2.40;;;2.05;;
1949;SDS011;975;48.760;9.152;2023-08-30T15:10:56;3.75;;;2.17;;
1949;SDS011;975;48.760;9.152;2023-08-30T15:16:33;3.05;;;1.80;;
1949;SDS011;975;48.760;9.152;2023-08-30T15:19:21;2.50;;;2.08;;
1949;SDS011;975;48.760;9.152;2023-08-30T15:22:09;2.97;;;2.15;;
1949;SDS011;975;48.760;9.152;2023-08-30T15:24:56;3.33;;;1.73;;
1949;SDS011;975;48.760;9.152;2023-08-30T15:27:44;3.95;;;1.92;;
1949;SDS011;975;48.760;9.152;2023-08-30T15:30:32;2.35;;;1.55;;
1949;SDS011;975;48.760;9.152;2023-08-30T15:33:21;2.17;;;1.60;;
1949;SDS011;975;48.760;9.152;2023-08-30T15:36:10;2.22;;;1.60;;
1949;SDS011;975;48.760;9.152;2023-08-30T15:38:57;2.13;;;1.70;;
1949;SDS011;975;48.760;9.152;2023-08-30T15:41:45;2.97;;;2.00;;
1949;SDS011;975;48.760;9.152;2023-08-30T15:44:33;3.28;;;2.00;;
1949;SDS011;975;48.760;9.152;2023-08-30T15:47:21;3.55;;;2.50;;
1949;SDS011;975;48.760;9.152;2023-08-30T15:50:10;3.83;;;1.80;;
1949;SDS011;975;48.760;9.152;2023-08-30T15:52:58;2.85;;;1.90;;
1949;SDS011;975;48.760;9.152;2023-08-30T15:55:46;3.28;;;2.17;;
1949;SDS011;975;48.760;9.152;2023-08-30T15:58:33;2.63;;;2.22;;
1949;SDS011;975;48.760;9.152;2023-08-30T16:01:21;2.80;;;2.05;;
1949;SDS011;975;48.760;9.152;2023-08-30T16:04:09;2.40;;;1.98;;
1949;SDS011;975;48.760;9.152;2023-08-30T16:06:58;2.55;;;1.92;;
1949;SDS011;975;48.760;9.152;2023-08-30T16:09:46;2.60;;;1.95;;
1949;SDS011;975;48.760;9.152;2023-08-30T16:12:34;2.70;;;2.03;;
1949;SDS011;975;48.760;9.152;2023-08-30T16:15:22;3.10;;;1.83;;
1949;SDS011;975;48.760;9.152;2023-08-30T16:18:12;2.47;;;1.90;;
1949;SDS011;975;48.760;9.152;2023-08-30T16:21:01;4.53;;;2.05;;
1949;SDS011;975;48.760;9.152;2023-08-30T16:23:50;1.60;;;1.50;;
1949;SDS011;975;48.760;9.152;2023-08-30T16:26:38;2.15;;;1.45;;
1949;SDS011;975;48.760;9.152;2023-08-30T16:29:26;2.13;;;1.75;;
1949;SDS011;975;48.760;9.152;2023-08-30T16:32:13;3.53;;;1.92;;
1949;SDS011;975;48.760;9.152;2023-08-30T16:35:01;4.05;;;1.95;;
1949;SDS011;975;48.760;9.152;2023-08-30T16:37:49;4.85;;;2.40;;
1949;SDS011;975;48.760;9.152;2023-08-30T16:40:38;4.07;;;2.10;;
1949;SDS011;975;48.760;9.152;2023-08-30T16:43:26;3.38;;;1.98;;
1949;SDS011;975;48.760;9.152;2023-08-30T16:46:13;3.17;;;1.83;;
1949;SDS011;975;48.760;9.152;2023-08-30T16:49:01;6.10;;;1.85;;
1949;SDS011;975;48.760;9.152;2023-08-30T16:51:49;3.08;;;1.75;;
1949;SDS011;975;48.760;9.152;2023-08-30T16:54:38;2.40;;;1.85;;
1949;SDS011;975;48.760;9.152;2023-08-30T16:57:27;1.90;;;1.67;;
1949;SDS011;975;48.760;9.152;2023-08-30T17:00:15;2.67;;;1.92;;
1949;SDS011;975;48.760;9.152;2023-08-30T17:03:04;4.20;;;1.85;;
1949;SDS011;975;48.760;9.152;2023-08-30T17:05:52;2.53;;;1.73;;
1949;SDS011;975;48.760;9.152;2023-08-30T17:08:39;2.78;;;1.90;;
1949;SDS011;975;48.760;9.152;2023-08-30T17:11:27;2.17;;;1.52;;
1949;SDS011;975;48.760;9.152;2023-08-30T17:14:16;2.80;;;1.58;;
1949;SDS011;975;48.760;9.152;2023-08-30T17:17:04;3.40;;;2.20;;
1949;SDS011;975;48.760;9.152;2023-08-30T17:19:52;2.50;;;1.73;;
1949;SDS011;975;48.760;9.152;2023-08-30T17:22:40;3.25;;;1.80;;
1949;SDS011;975;48.760;9.152;2023-08-30T17:25:28;3.60;;;1.90;;
1949;SDS011;975;48.760;9.152;2023-08-30T17:28:16;7.80;;;2.22;;
1949;SDS011;975;48.760;9.152;2023-08-30T17:31:05;2.90;;;1.50;;
1949;SDS011;975;48.760;9.152;2023-08-30T17:33:53;1.90;;;1.52;;
1949;SDS011;975;48.760;9.152;2023-08-30T17:36:40;2.22;;;2.03;;
1949;SDS011;975;48.760;9.152;2023-08-30T17:39:32;3.45;;;1.80;;
1949;SDS011;975;48.760;9.152;2023-08-30T17:42:20;3.17;;;1.80;;
1949;SDS011;975;48.760;9.152;2023-08-30T17:45:09;3.08;;;1.77;;